Aérodrome :
LOGIN :

S'inscrire | Disclaimer

   EN    FR    IT 

 










Légende :    VFR   VFR Marginal   IFR   IFR Intensif   IFR Très Intensif
Visi : 
Plafond : 
>= 8 km
>= 3000ft
5 à 8 km
1000 à 3000 ft
1500m à 5 km
500 à 1000 ft
800 à 1500m
200 à 500 ft
< 800m
< 200 ft
Symboles :   Orages  Brouillard  Fortes neiges  Fortes précipitations  Vent > 20 kt
SIGMETs :   Divers  Orages  Givrage  Turbulence  Onde Orograph.  Cendres Volcan.






- Altitude de l'aérodrome : 101 ft
- Code IATA : HAD


ESMT - Halmstad

DERNIER METAR :
  • 232320Z AUTO 16008KT 120V190 9999 FEW032/// BKN057/// BKN087/// 10/08 Q1005 REUP

METARs EXPIRÉS :
  • 232250Z AUTO 18008KT 9999 SCT019/// OVC044/// 10/09 Q1005
  • 232220Z AUTO 18009KT 9999 FEW041/// SCT048/// OVC056/// 10/09 Q1006 RESHUP
  • 232150Z AUTO 19007KT 9999 FEW033/// BKN045/// OVC066/// 10/09 Q1006 REUP REDZ
  • 232120Z AUTO 20008KT 9999 FEW018/// SCT042/// OVC066/// 10/09 Q1006
  • 232050Z AUTO 20007KT 9999 FEW047/// 09/09 Q1006

Prévision TAF périmée.



MET'MAP, la Météo Aéronautique d'un coup d'oeil ! - Copyright ORBIFLY Décembre 2007 - Disclaimer

ORBIFLY MET'MAP TEAM :

Programmation & Développement : Alexandra Zaïnal
Sur une idée originale de : Baudouin d'Aumeries
Assistance à la programmation : Marc-Olivier Méhu
Soutien technique & logistique : Manuel Goepfert

Contact : metmap@orbifly.com




SOURCES & CREDITS :

   NOAA